Time;durP1;ratioP1;P1;durP2;ratioP2;P2;SDS_P1;SDS_P2;PMS_P1;PMS_P2;Temp;Humidity;BMP_temperature;BMP_pressure;BME280_temperature;BME280_humidity;BME280_pressure;Samples;Min_cycle;Max_cycle;Signal;HPM_P1;HPM_P2
2022/07/27 01:43:21;;;;;;;7.40;2.90;;;;;;;;;;1648529;29;21884;-59
2022/07/27 01:44:12;;;;;;;2.95;2.72;;;;;;;;;;1641851;29;21706;-59
2022/07/27 01:45:06;;;;;;;5.18;2.75;;;;;;;;;;1642559;29;22582;-59
2022/07/27 01:45:58;;;;;;;3.10;2.90;;;;;;;;;;1644072;29;22464;-58
2022/07/27 01:46:51;;;;;;;4.70;3.08;;;;;;;;;;1642977;29;22462;-59
2022/07/27 01:47:42;;;;;;;4.68;3.20;;;;;;;;;;1636806;29;21714;-59
2022/07/27 01:48:34;;;;;;;3.00;2.80;;;;;;;;;;1641860;29;21863;-59
2022/07/27 01:49:25;;;;;;;3.80;2.70;;;;;;;;;;1642392;29;22837;-58
2022/07/27 01:50:18;;;;;;;3.30;3.00;;;;;;;;;;1643495;29;22465;-59
2022/07/27 01:51:09;;;;;;;3.35;3.05;;;;;;;;;;1642701;29;22676;-58
2022/07/27 01:52:01;;;;;;;3.10;2.90;;;;;;;;;;1642705;29;22074;-59
2022/07/27 01:52:53;;;;;;;4.20;3.00;;;;;;;;;;1643307;29;21747;-58
2022/07/27 01:53:45;;;;;;;3.20;2.90;;;;;;;;;;1642831;29;21765;-59
2022/07/27 01:54:36;;;;;;;7.57;3.15;;;;;;;;;;1642598;29;22743;-59
2022/07/27 01:55:29;;;;;;;4.32;3.00;;;;;;;;;;1643335;29;21616;-59
2022/07/27 01:56:20;;;;;;;4.10;2.78;;;;;;;;;;1643170;29;21608;-58
2022/07/27 01:57:13;;;;;;;3.15;2.78;;;;;;;;;;1642720;29;22457;-58
2022/07/27 01:58:06;;;;;;;11.13;3.40;;;;;;;;;;1643452;29;21583;-59
2022/07/27 01:58:59;;;;;;;3.13;2.75;;;;;;;;;;1643181;29;21599;-58
2022/07/27 01:59:51;;;;;;;5.28;3.15;;;;;;;;;;1642702;29;21830;-59
2022/07/27 02:00:44;;;;;;;3.53;3.22;;;;;;;;;;1639914;29;21663;-58
2022/07/27 02:01:35;;;;;;;3.47;2.63;;;;;;;;;;1642819;29;21669;-58
2022/07/27 02:02:27;;;;;;;3.60;2.80;;;;;;;;;;1643225;29;22255;-59
2022/07/27 02:03:20;;;;;;;3.22;2.85;;;;;;;;;;1642619;29;21705;-58
2022/07/27 02:04:11;;;;;;;2.92;2.72;;;;;;;;;;1643339;29;21641;-58
2022/07/27 02:05:03;;;;;;;3.10;2.90;;;;;;;;;;1643033;29;22336;-58
2022/07/27 02:05:54;;;;;;;3.08;2.88;;;;;;;;;;1642674;29;22363;-58
2022/07/27 02:06:47;;;;;;;3.22;2.90;;;;;;;;;;1643182;29;22482;-59
2022/07/27 02:07:39;;;;;;;3.30;3.00;;;;;;;;;;1642922;29;22086;-59
2022/07/27 02:08:33;;;;;;;3.20;3.00;;;;;;;;;;1642025;29;22152;-58
2022/07/27 02:09:24;;;;;;;6.28;2.90;;;;;;;;;;1643054;29;22219;-59
2022/07/27 02:10:17;;;;;;;8.02;2.92;;;;;;;;;;1643284;29;21830;-59
2022/07/27 02:12:36;;;;;;;3.47;2.83;;;;;;;;;;1643102;29;21863;-59
2022/07/27 02:13:28;;;;;;;2.83;2.63;;;;;;;;;;1642877;29;21603;-59
2022/07/27 02:14:22;;;;;;;3.05;2.83;;;;;;;;;;1642803;29;21626;-59
2022/07/27 02:15:16;;;;;;;2.50;2.30;;;;;;;;;;1643413;29;21603;-59
2022/07/27 02:16:08;;;;;;;4.65;2.78;;;;;;;;;;1643159;29;22232;-59
2022/07/27 02:16:59;;;;;;;3.63;2.92;;;;;;;;;;1642819;29;22003;-58
2022/07/27 08:15:12;;;;;;;5.65;4.22;;;;;;;;;;1648939;29;22105;-58
2022/07/27 08:16:07;;;;;;;4.75;4.35;;;;;;;;;;1645515;29;21587;-58
2022/07/27 08:16:58;;;;;;;9.73;4.80;;;;;;;;;;1647234;29;21662;-57
2022/07/27 08:17:50;;;;;;;11.75;4.78;;;;;;;;;;1646284;29;21779;-58
2022/07/27 08:18:41;;;;;;;6.15;4.72;;;;;;;;;;1645616;29;22759;-57
2022/07/27 08:19:34;;;;;;;9.10;4.68;;;;;;;;;;1650889;29;22571;-58
2022/07/27 08:20:27;;;;;;;4.90;4.38;;;;;;;;;;1649487;29;22406;-57
2022/07/27 08:21:19;;;;;;;7.00;4.55;;;;;;;;;;1646601;29;23044;-57
2022/07/27 08:22:10;;;;;;;8.40;5.07;;;;;;;;;;1649103;29;21699;-58
2022/07/27 08:23:03;;;;;;;5.85;5.25;;;;;;;;;;1648635;29;21793;-58
2022/07/27 08:23:55;;;;;;;12.75;5.63;;;;;;;;;;1645533;29;21766;-58
2022/07/27 08:24:47;;;;;;;10.93;5.65;;;;;;;;;;1648280;29;21922;-58
2022/07/27 08:25:38;;;;;;;8.50;5.43;;;;;;;;;;1648813;29;22713;-58
2022/07/27 08:26:31;;;;;;;7.72;5.85;;;;;;;;;;1647007;29;21987;-58
2022/07/27 08:27:22;;;;;;;6.93;5.35;;;;;;;;;;1645595;29;21623;-57
2022/07/27 08:28:14;;;;;;;8.88;6.20;;;;;;;;;;1649284;29;21672;-57
2022/07/27 08:29:06;;;;;;;6.28;5.60;;;;;;;;;;1647469;29;21742;-58
2022/07/27 08:29:58;;;;;;;11.75;6.70;;;;;;;;;;1647458;29;21775;-60
2022/07/27 08:30:50;;;;;;;10.05;6.30;;;;;;;;;;1650090;29;21627;-58
2022/07/27 08:31:43;;;;;;;10.52;7.13;;;;;;;;;;1647445;29;21864;-58
2022/07/27 08:32:50;;;;;;;15.13;6.82;;;;;;;;;;1644167;29;21794;-58
2022/07/27 08:33:42;;;;;;;10.68;6.32;;;;;;;;;;1647869;29;22118;-58
2022/07/27 08:34:33;;;;;;;11.20;7.20;;;;;;;;;;1650768;29;21552;-59
2022/07/27 08:35:26;;;;;;;8.05;6.55;;;;;;;;;;1650469;29;22686;-59
2022/07/27 08:36:18;;;;;;;11.60;7.53;;;;;;;;;;1644735;29;21775;-58
2022/07/27 08:37:10;;;;;;;9.82;6.53;;;;;;;;;;1646217;29;21867;-58
2022/07/27 08:38:04;;;;;;;15.95;7.35;;;;;;;;;;1648253;29;21761;-58
2022/07/27 08:38:56;;;;;;;8.32;6.70;;;;;;;;;;1646087;29;21578;-59
2022/07/27 08:39:48;;;;;;;9.00;6.35;;;;;;;;;;1651678;29;21656;-58
2022/07/27 08:40:41;;;;;;;8.13;7.28;;;;;;;;;;1649744;29;22592;-58
2022/07/27 08:41:32;;;;;;;32.95;7.22;;;;;;;;;;1648270;29;22351;-58
2022/07/27 08:42:28;;;;;;;13.98;8.00;;;;;;;;;;1647484;29;22337;-59
2022/07/27 08:43:20;;;;;;;10.50;7.38;;;;;;;;;;1650474;29;22691;-57
2022/07/27 08:44:14;;;;;;;11.30;7.22;;;;;;;;;;1649457;29;21782;-58
2022/07/27 08:45:07;;;;;;;8.82;7.72;;;;;;;;;;1647031;29;21593;-59
2022/07/27 08:46:00;;;;;;;16.80;7.78;;;;;;;;;;1649755;29;22533;-58
2022/07/27 08:46:55;;;;;;;9.65;6.78;;;;;;;;;;1647247;29;22368;-58
2022/07/27 08:47:47;;;;;;;21.35;7.50;;;;;;;;;;1645830;29;21863;-58
2022/07/27 08:48:39;;;;;;;9.60;7.28;;;;;;;;;;1648775;29;21606;-58
2022/07/27 08:49:33;;;;;;;9.75;8.07;;;;;;;;;;1647969;29;21606;-58
2022/07/27 08:50:27;;;;;;;8.40;7.65;;;;;;;;;;1644876;29;21762;-58
2022/07/27 08:51:20;;;;;;;10.38;8.50;;;;;;;;;;1650351;29;21651;-58
2022/07/27 08:52:12;;;;;;;15.10;10.00;;;;;;;;;;1648984;29;21608;-58
2022/07/27 08:53:07;;;;;;;13.10;8.80;;;;;;;;;;1647232;29;22178;-58
2022/07/27 08:53:59;;;;;;;9.20;8.43;;;;;;;;;;1648839;29;22674;-57
2022/07/27 08:54:52;;;;;;;11.10;9.20;;;;;;;;;;1648625;29;22648;-57
2022/07/27 08:55:46;;;;;;;10.93;7.60;;;;;;;;;;1643634;29;21588;-58
2022/07/27 08:56:38;;;;;;;8.20;7.50;;;;;;;;;;1648541;29;22204;-58
2022/07/27 08:57:30;;;;;;;9.75;7.80;;;;;;;;;;1646042;29;21616;-59
2022/07/27 08:58:21;;;;;;;8.25;7.45;;;;;;;;;;1647068;29;21610;-57
2022/07/27 08:59:14;;;;;;;8.07;7.47;;;;;;;;;;1650267;29;22517;-58
2022/07/27 09:00:07;;;;;;;10.88;8.27;;;;;;;;;;1648814;29;21665;-58
2022/07/27 09:01:00;;;;;;;9.27;8.40;;;;;;;;;;1648517;29;22025;-57
2022/07/27 09:01:53;;;;;;;13.60;8.45;;;;;;;;;;1650308;29;21614;-58
2022/07/27 09:02:45;;;;;;;16.77;7.68;;;;;;;;;;1649169;29;21659;-58
2022/07/27 09:03:37;;;;;;;12.35;9.10;;;;;;;;;;1647289;29;22494;-58
2022/07/27 09:04:29;;;;;;;16.40;7.72;;;;;;;;;;1649343;29;21688;-58
2022/07/27 09:05:21;;;;;;;8.45;7.15;;;;;;;;;;1641961;29;21836;-58
2022/07/27 09:06:13;;;;;;;11.15;7.50;;;;;;;;;;1645428;29;21603;-58
2022/07/27 09:07:05;;;;;;;9.63;8.00;;;;;;;;;;1646194;29;21771;-58
2022/07/27 09:08:09;;;;;;;8.68;7.88;;;;;;;;;;1648421;29;21592;-58
2022/07/27 09:09:01;;;;;;;12.63;7.20;;;;;;;;;;1639555;29;21672;-58
2022/07/27 09:09:53;;;;;;;9.57;7.90;;;;;;;;;;1642275;29;21653;-58
2022/07/27 09:10:45;;;;;;;9.88;7.32;;;;;;;;;;1641794;29;21675;-58
2022/07/27 09:11:40;;;;;;;9.07;7.20;;;;;;;;;;1636510;29;21972;-58
2022/07/27 09:12:41;;;;;;;9.07;6.35;;;;;;;;;;1618503;30;21731;-59
2022/07/27 09:13:34;;;;;;;20.02;6.68;;;;;;;;;;1634447;29;21609;-59
2022/07/27 09:14:30;;;;;;;7.60;6.97;;;;;;;;;;1638854;29;21857;-58
2022/07/27 09:15:23;;;;;;;9.15;7.20;;;;;;;;;;1651084;29;22219;-58
2022/07/27 09:16:16;;;;;;;8.25;7.45;;;;;;;;;;1654342;29;21921;-59
2022/07/27 09:17:24;;;;;;;19.33;8.32;;;;;;;;;;1651286;29;21647;-59
2022/07/27 09:18:19;;;;;;;8.48;7.22;;;;;;;;;;1649867;29;21660;-59
2022/07/27 09:19:11;;;;;;;6.30;5.80;;;;;;;;;;1648467;29;22031;-59
2022/07/27 09:20:07;;;;;;;10.57;6.05;;;;;;;;;;1648669;29;21619;-59
2022/07/27 09:21:11;;;;;;;6.82;6.18;;;;;;;;;;1650361;29;22406;-59
2022/07/27 09:22:03;;;;;;;6.90;6.30;;;;;;;;;;1648190;29;21599;-58
2022/07/27 09:22:55;;;;;;;7.53;6.35;;;;;;;;;;1645709;29;22405;-58
2022/07/27 09:23:50;;;;;;;7.82;6.82;;;;;;;;;;1644387;29;21605;-58
2022/07/27 09:25:01;;;;;;;7.38;5.65;;;;;;;;;;1645863;29;21695;-58
2022/07/27 09:26:11;;;;;;;6.57;6.00;;;;;;;;;;1637735;29;21646;-59
2022/07/27 09:27:04;;;;;;;6.07;5.47;;;;;;;;;;1647938;29;22410;-58
2022/07/27 09:27:58;;;;;;;11.13;5.70;;;;;;;;;;1650519;29;22274;-58
2022/07/27 09:28:53;;;;;;;5.90;5.40;;;;;;;;;;1644323;29;21652;-58
2022/07/27 09:29:46;;;;;;;6.78;5.72;;;;;;;;;;1644901;29;22271;-58
2022/07/27 09:30:42;;;;;;;5.47;5.07;;;;;;;;;;1644430;29;21699;-58
2022/07/27 09:31:42;;;;;;;6.20;5.60;;;;;;;;;;1644521;29;21593;-57
2022/07/27 09:32:38;;;;;;;5.78;5.32;;;;;;;;;;1646845;29;21762;-58
2022/07/27 09:33:30;;;;;;;5.70;5.20;;;;;;;;;;1644832;29;21605;-58
2022/07/27 09:34:27;;;;;;;15.82;6.28;;;;;;;;;;1643891;29;22737;-58
2022/07/27 09:35:22;;;;;;;11.60;5.47;;;;;;;;;;1644039;29;21957;-58
2022/07/27 09:36:15;;;;;;;6.78;5.63;;;;;;;;;;1646272;29;21759;-58
2022/07/27 09:37:08;;;;;;;5.95;5.25;;;;;;;;;;1646704;29;22389;-58
2022/07/27 09:38:17;;;;;;;6.68;5.47;;;;;;;;;;1648406;29;21645;-58
2022/07/27 09:39:20;;;;;;;5.78;5.32;;;;;;;;;;1654641;29;22442;-59
2022/07/27 09:40:15;;;;;;;8.43;5.45;;;;;;;;;;1656137;29;22300;-58
2022/07/27 09:41:08;;;;;;;6.53;5.40;;;;;;;;;;1642971;29;21592;-58
2022/07/27 09:42:01;;;;;;;6.07;5.53;;;;;;;;;;1648273;29;22590;-58
2022/07/27 09:43:11;;;;;;;7.78;5.07;;;;;;;;;;1646994;29;22115;-59
2022/07/27 09:44:03;;;;;;;5.57;4.60;;;;;;;;;;1646878;29;21659;-58
2022/07/27 09:44:55;;;;;;;5.75;5.25;;;;;;;;;;1651039;29;21718;-58
2022/07/27 09:45:47;;;;;;;5.38;4.85;;;;;;;;;;1654792;29;22406;-57
2022/07/27 09:46:41;;;;;;;8.63;4.80;;;;;;;;;;1648800;29;21634;-58
2022/07/27 09:47:38;;;;;;;8.05;5.00;;;;;;;;;;1644892;29;21733;-58
2022/07/27 09:48:34;;;;;;;5.93;5.38;;;;;;;;;;1650068;29;21833;-58
2022/07/27 09:49:29;;;;;;;5.95;5.47;;;;;;;;;;1647739;29;21624;-59
2022/07/27 09:50:22;;;;;;;5.80;5.30;;;;;;;;;;1643796;29;21819;-59
2022/07/27 09:51:15;;;;;;;5.60;5.07;;;;;;;;;;1641659;29;21874;-59
2022/07/27 09:52:06;;;;;;;6.13;5.63;;;;;;;;;;1646275;29;22165;-58
2022/07/27 09:53:16;;;;;;;9.40;6.05;;;;;;;;;;1649744;29;21929;-59
2022/07/27 09:54:08;;;;;;;7.78;6.28;;;;;;;;;;1649308;29;21660;-58
2022/07/27 09:55:04;;;;;;;19.45;6.53;;;;;;;;;;1647423;29;22117;-58
2022/07/27 09:55:59;;;;;;;6.78;5.72;;;;;;;;;;1637225;29;21645;-57
2022/07/27 09:57:00;;;;;;;11.63;6.32;;;;;;;;;;1643701;29;21636;-58
2022/07/27 09:57:51;;;;;;;9.07;6.00;;;;;;;;;;1651837;29;21763;-58
2022/07/27 09:58:47;;;;;;;6.32;5.75;;;;;;;;;;1651281;29;22345;-58
2022/07/27 09:59:38;;;;;;;5.68;5.07;;;;;;;;;;1648172;29;21982;-59
2022/07/27 10:00:31;;;;;;;9.60;5.93;;;;;;;;;;1648042;29;21626;-58
2022/07/27 10:01:25;;;;;;;5.50;5.05;;;;;;;;;;1649556;29;21622;-58
2022/07/27 10:02:16;;;;;;;7.38;5.18;;;;;;;;;;1649385;29;21701;-58
2022/07/27 10:03:10;;;;;;;5.90;5.10;;;;;;;;;;1646223;29;22733;-58
2022/07/27 10:04:05;;;;;;;17.88;5.07;;;;;;;;;;1649934;29;22715;-58
2022/07/27 10:04:57;;;;;;;8.68;4.70;;;;;;;;;;1647822;29;22580;-58
2022/07/27 10:05:48;;;;;;;5.97;4.65;;;;;;;;;;1647640;29;21661;-58
2022/07/27 10:06:42;;;;;;;7.18;4.43;;;;;;;;;;1647574;29;22557;-57
2022/07/27 10:07:33;;;;;;;6.63;4.60;;;;;;;;;;1643620;29;21625;-58
2022/07/27 10:08:26;;;;;;;4.15;3.78;;;;;;;;;;1645554;29;22112;-59
2022/07/27 10:09:18;;;;;;;7.40;4.53;;;;;;;;;;1636661;29;22698;-59
2022/07/27 10:10:12;;;;;;;10.68;4.35;;;;;;;;;;1650295;29;21612;-58
2022/07/27 10:11:05;;;;;;;5.00;3.95;;;;;;;;;;1647491;29;22720;-58
2022/07/27 10:11:57;;;;;;;4.05;3.65;;;;;;;;;;1645277;29;21604;-58
2022/07/27 10:12:51;;;;;;;9.75;3.63;;;;;;;;;;1649029;29;22245;-59
2022/07/27 10:13:43;;;;;;;4.25;3.20;;;;;;;;;;1649664;29;21671;-58
2022/07/27 10:14:35;;;;;;;5.57;3.83;;;;;;;;;;1648460;29;22334;-58
2022/07/27 10:15:27;;;;;;;4.70;3.58;;;;;;;;;;1650354;29;21812;-58
2022/07/27 10:16:22;;;;;;;3.35;3.05;;;;;;;;;;1653231;29;22553;-58
2022/07/27 10:17:15;;;;;;;7.25;3.05;;;;;;;;;;1657418;29;21713;-59
2022/07/27 10:18:15;;;;;;;3.60;2.80;;;;;;;;;;1651116;29;21598;-58
2022/07/27 10:19:14;;;;;;;3.50;2.90;;;;;;;;;;1645320;29;21977;-58
2022/07/27 10:20:08;;;;;;;3.75;3.20;;;;;;;;;;1654173;29;22413;-58
2022/07/27 10:21:07;;;;;;;3.50;3.20;;;;;;;;;;1653447;29;21672;-58
2022/07/27 10:22:00;;;;;;;4.90;3.20;;;;;;;;;;1661031;29;21767;-57
2022/07/27 10:22:55;;;;;;;9.70;3.55;;;;;;;;;;1660467;29;21589;-58
2022/07/27 10:23:56;;;;;;;3.13;2.88;;;;;;;;;;1660401;29;21685;-58
2022/07/27 10:25:00;;;;;;;6.97;3.03;;;;;;;;;;1666231;29;21668;-59
2022/07/27 10:26:17;;;;;;;4.07;2.88;;;;;;;;;;1661659;29;21616;-58
2022/07/27 10:27:21;;;;;;;4.65;2.95;;;;;;;;;;1659513;29;21801;-58
2022/07/27 10:28:16;;;;;;;5.40;3.22;;;;;;;;;;1661181;29;22526;-58
2022/07/27 10:29:17;;;;;;;19.40;2.70;;;;;;;;;;1660464;29;22436;-58
2022/07/27 10:30:10;;;;;;;3.78;2.67;;;;;;;;;;1661375;29;21873;-59
2022/07/27 10:31:18;;;;;;;4.13;2.70;;;;;;;;;;1660652;29;21632;-58
2022/07/27 10:32:10;;;;;;;3.28;2.50;;;;;;;;;;1662985;29;22076;-57
2022/07/27 10:33:13;;;;;;;6.93;3.25;;;;;;;;;;1663097;29;22479;-57
2022/07/27 10:34:07;;;;;;;8.88;3.38;;;;;;;;;;1659248;29;21749;-58
2022/07/27 10:35:00;;;;;;;6.22;2.78;;;;;;;;;;1652343;29;22070;-58
2022/07/27 10:35:52;;;;;;;5.35;2.63;;;;;;;;;;1652496;29;21660;-57
2022/07/27 10:36:51;;;;;;;8.27;2.65;;;;;;;;;;1651836;29;21691;-57
2022/07/27 10:37:43;;;;;;;2.97;2.47;;;;;;;;;;1662246;29;21593;-58
2022/07/27 10:38:46;;;;;;;3.72;2.60;;;;;;;;;;1660914;29;21631;-58
2022/07/27 10:39:41;;;;;;;2.47;2.28;;;;;;;;;;1657498;29;22363;-59
2022/07/27 10:40:33;;;;;;;4.78;2.90;;;;;;;;;;1664323;29;22372;-58
2022/07/27 10:41:27;;;;;;;3.13;2.53;;;;;;;;;;1656801;29;21785;-58
2022/07/27 10:42:26;;;;;;;6.15;2.53;;;;;;;;;;1659265;29;21714;-59
2022/07/27 10:43:20;;;;;;;3.63;2.80;;;;;;;;;;1663033;29;22513;-58
2022/07/27 10:44:28;;;;;;;3.10;2.25;;;;;;;;;;1660478;29;21859;-59
2022/07/27 10:45:21;;;;;;;3.92;2.53;;;;;;;;;;1656149;29;21766;-58
2022/07/27 10:46:19;;;;;;;4.22;2.95;;;;;;;;;;1657234;29;22513;-58
2022/07/27 10:47:29;;;;;;;2.95;2.45;;;;;;;;;;1657694;29;21801;-59
2022/07/27 10:48:41;;;;;;;9.23;2.88;;;;;;;;;;1649929;29;21938;-58
2022/07/27 10:49:36;;;;;;;7.35;3.17;;;;;;;;;;1655129;29;21738;-58
2022/07/27 10:50:31;;;;;;;6.22;2.70;;;;;;;;;;1657822;29;22444;-58
2022/07/27 10:51:35;;;;;;;9.10;3.53;;;;;;;;;;1661451;29;21700;-58
2022/07/27 10:52:40;;;;;;;4.68;3.83;;;;;;;;;;1652205;29;22094;-58
2022/07/27 10:53:35;;;;;;;5.70;5.30;;;;;;;;;;1649173;29;22340;-58
2022/07/27 10:54:36;;;;;;;7.40;6.38;;;;;;;;;;1655620;29;22293;-57
2022/07/27 10:55:58;;;;;;;8.48;7.68;;;;;;;;;;1655894;29;21589;-59
2022/07/27 10:56:50;;;;;;;7.70;7.10;;;;;;;;;;1656144;29;21684;-59
2022/07/27 10:57:43;;;;;;;9.63;7.30;;;;;;;;;;1656195;29;21740;-58
2022/07/27 10:58:50;;;;;;;12.70;7.05;;;;;;;;;;1657500;29;21600;-57
2022/07/27 10:59:48;;;;;;;7.63;6.70;;;;;;;;;;1655406;29;22313;-58
2022/07/27 11:01:01;;;;;;;9.48;6.18;;;;;;;;;;1657373;29;21596;-58
2022/07/27 11:01:57;;;;;;;5.82;5.38;;;;;;;;;;1655731;29;21656;-58
2022/07/27 11:02:48;;;;;;;4.60;4.30;;;;;;;;;;1653497;29;21718;-58
2022/07/27 11:03:48;;;;;;;6.40;4.65;;;;;;;;;;1656994;29;21793;-57
2022/07/27 11:04:45;;;;;;;4.47;4.07;;;;;;;;;;1655439;29;22461;-58
2022/07/27 11:05:37;;;;;;;5.70;4.30;;;;;;;;;;1655991;29;21686;-58
2022/07/27 11:06:31;;;;;;;4.95;4.32;;;;;;;;;;1656477;29;21587;-58
2022/07/27 11:07:23;;;;;;;8.63;3.67;;;;;;;;;;1657236;29;21613;-58
2022/07/27 11:08:15;;;;;;;3.78;3.40;;;;;;;;;;1655611;29;22709;-58
2022/07/27 11:09:08;;;;;;;7.50;3.47;;;;;;;;;;1656658;29;21629;-58
2022/07/27 11:10:00;;;;;;;5.93;2.90;;;;;;;;;;1655150;29;22849;-58
2022/07/27 11:10:53;;;;;;;3.40;3.10;;;;;;;;;;1656543;29;21719;-58
2022/07/27 11:11:48;;;;;;;8.05;3.03;;;;;;;;;;1655528;29;21586;-57
2022/07/27 11:12:41;;;;;;;4.53;2.65;;;;;;;;;;1657391;29;22701;-58
2022/07/27 11:13:34;;;;;;;3.78;2.45;;;;;;;;;;1657520;29;22524;-59
2022/07/27 11:14:29;;;;;;;3.35;3.05;;;;;;;;;;1656358;29;21685;-57
2022/07/27 11:15:21;;;;;;;4.90;2.92;;;;;;;;;;1657301;29;22512;-58
2022/07/27 11:16:15;;;;;;;3.17;2.70;;;;;;;;;;1649694;29;22404;-57
2022/07/27 11:17:08;;;;;;;10.13;2.97;;;;;;;;;;1647135;29;21692;-57
2022/07/27 11:17:59;;;;;;;2.80;2.58;;;;;;;;;;1649361;29;21658;-58
2022/07/27 11:19:02;;;;;;;8.70;2.53;;;;;;;;;;1652651;29;21741;-58
2022/07/27 11:19:54;;;;;;;8.82;2.65;;;;;;;;;;1657674;29;21695;-58
2022/07/27 11:20:47;;;;;;;18.45;3.42;;;;;;;;;;1648072;29;21600;-58
2022/07/27 11:21:40;;;;;;;3.28;2.97;;;;;;;;;;1638252;29;21698;-58
2022/07/27 11:22:34;;;;;;;3.38;2.80;;;;;;;;;;1648328;29;21753;-59
2022/07/27 11:23:27;;;;;;;5.55;2.80;;;;;;;;;;1660357;29;22633;-58
2022/07/27 11:24:19;;;;;;;6.57;2.72;;;;;;;;;;1659362;29;21730;-58
2022/07/27 11:25:15;;;;;;;6.70;2.70;;;;;;;;;;1661991;29;21710;-57
2022/07/27 11:26:10;;;;;;;4.70;2.53;;;;;;;;;;1665039;29;22380;-58
2022/07/27 11:27:04;;;;;;;3.75;3.00;;;;;;;;;;1653374;29;21673;-58
2022/07/27 11:27:56;;;;;;;5.25;2.35;;;;;;;;;;1653244;29;22452;-58
2022/07/27 11:28:49;;;;;;;5.47;2.75;;;;;;;;;;1653664;29;22096;-57
2022/07/27 11:29:40;;;;;;;3.75;2.90;;;;;;;;;;1655881;29;22706;-58
2022/07/27 11:30:33;;;;;;;3.83;2.90;;;;;;;;;;1656749;29;22251;-58
2022/07/27 11:31:27;;;;;;;5.45;2.28;;;;;;;;;;1664816;29;21547;-58
2022/07/27 11:32:19;;;;;;;5.53;2.75;;;;;;;;;;1657082;29;21760;-58
2022/07/27 11:33:12;;;;;;;3.28;2.25;;;;;;;;;;1658825;29;22060;-60
2022/07/27 11:34:07;;;;;;;5.45;2.67;;;;;;;;;;1662675;29;21880;-58
2022/07/27 11:34:58;;;;;;;4.10;2.50;;;;;;;;;;1654772;29;21864;-58
2022/07/27 11:35:53;;;;;;;3.88;2.22;;;;;;;;;;1651950;29;21710;-58
2022/07/27 11:36:47;;;;;;;6.20;2.10;;;;;;;;;;1652171;29;21665;-59
2022/07/27 11:37:40;;;;;;;12.27;2.35;;;;;;;;;;1657661;29;21690;-58
2022/07/27 11:38:45;;;;;;;6.32;2.50;;;;;;;;;;1659213;29;21645;-59
2022/07/27 11:39:37;;;;;;;118.45;105.70;;;;;;;;;;1662303;29;21671;-59
2022/07/27 11:40:41;;;;;;;18.90;16.45;;;;;;;;;;1663617;29;22445;-58
2022/07/27 11:41:36;;;;;;;5.28;4.75;;;;;;;;;;1660070;29;21655;-57
2022/07/27 11:42:37;;;;;;;15.80;6.75;;;;;;;;;;1658479;29;22402;-58
2022/07/27 11:43:37;;;;;;;8.25;6.72;;;;;;;;;;1657464;29;21727;-58
2022/07/27 11:44:29;;;;;;;;;;;;;;;;;;1659362;29;21620;-58
2022/07/27 11:45:28;;;;;;;8.02;7.43;;;;;;;;;;1657953;29;21917;-59
2022/07/27 11:46:23;;;;;;;6.05;5.13;;;;;;;;;;1656074;29;22622;-58
2022/07/27 11:47:16;;;;;;;4.72;4.32;;;;;;;;;;1659617;29;21637;-57
2022/07/27 11:48:09;;;;;;;5.63;4.68;;;;;;;;;;1658907;29;21586;-58
2022/07/27 11:49:05;;;;;;;4.15;3.85;;;;;;;;;;1658377;29;22946;-57
2022/07/27 11:50:06;;;;;;;4.38;3.70;;;;;;;;;;1658727;29;21684;-57
2022/07/27 11:50:57;;;;;;;5.00;3.50;;;;;;;;;;1656868;29;21669;-58
2022/07/27 11:51:50;;;;;;;3.45;3.08;;;;;;;;;;1657824;29;21598;-57
2022/07/27 11:52:41;;;;;;;6.53;3.28;;;;;;;;;;1657651;29;22302;-58
2022/07/27 11:53:33;;;;;;;3.05;2.75;;;;;;;;;;1656818;29;21695;-58
2022/07/27 11:54:28;;;;;;;11.50;3.33;;;;;;;;;;1656847;29;22134;-59
2022/07/27 11:55:19;;;;;;;3.72;2.95;;;;;;;;;;1657907;29;22314;-58
2022/07/27 11:56:11;;;;;;;6.25;2.80;;;;;;;;;;1656938;29;21649;-58
2022/07/27 11:57:06;;;;;;;3.33;2.88;;;;;;;;;;1650390;29;22049;-58
2022/07/27 11:58:03;;;;;;;3.30;2.40;;;;;;;;;;1652382;29;22156;-58
2022/07/27 11:59:02;;;;;;;4.57;2.60;;;;;;;;;;1648907;29;21619;-58
2022/07/27 11:59:54;;;;;;;6.50;2.33;;;;;;;;;;1652633;29;21707;-56
2022/07/27 12:00:45;;;;;;;7.50;2.60;;;;;;;;;;1656735;29;22268;-58
2022/07/27 12:01:41;;;;;;;4.60;2.38;;;;;;;;;;1657589;29;21622;-57
2022/07/27 12:02:32;;;;;;;8.30;2.50;;;;;;;;;;1658511;29;21768;-58
2022/07/27 12:03:28;;;;;;;12.98;2.80;;;;;;;;;;1656931;29;21645;-57
2022/07/27 12:04:24;;;;;;;6.03;2.50;;;;;;;;;;1658775;29;21786;-58
2022/07/27 12:05:18;;;;;;;9.70;2.05;;;;;;;;;;1656956;29;22526;-58
2022/07/27 12:06:09;;;;;;;3.47;2.40;;;;;;;;;;1656659;29;21800;-56
2022/07/27 12:07:06;;;;;;;5.90;2.83;;;;;;;;;;1658063;29;21588;-58
2022/07/27 12:07:57;;;;;;;4.22;2.75;;;;;;;;;;1657128;29;22443;-58
2022/07/27 12:08:49;;;;;;;6.07;2.50;;;;;;;;;;1655963;29;22222;-58
2022/07/27 12:09:46;;;;;;;8.70;2.90;;;;;;;;;;1657010;29;22441;-60
2022/07/27 12:10:37;;;;;;;6.38;2.50;;;;;;;;;;1656314;29;22454;-59
2022/07/27 12:11:45;;;;;;;4.05;2.42;;;;;;;;;;1659730;29;21623;-59
2022/07/27 12:12:38;;;;;;;5.45;2.72;;;;;;;;;;1654979;29;21761;-60
2022/07/27 12:13:32;;;;;;;4.93;2.90;;;;;;;;;;1656972;29;21623;-57
2022/07/27 12:14:34;;;;;;;9.65;2.50;;;;;;;;;;1659197;29;21709;-59
2022/07/27 12:15:27;;;;;;;5.43;2.60;;;;;;;;;;1657228;29;22423;-60
2022/07/27 12:16:18;;;;;;;7.75;2.55;;;;;;;;;;1656779;29;21752;-58
2022/07/27 12:17:18;;;;;;;8.63;3.03;;;;;;;;;;1656622;29;21598;-59
2022/07/27 12:18:10;;;;;;;3.78;2.90;;;;;;;;;;1659168;29;21612;-58
2022/07/27 12:19:01;;;;;;;3.97;2.60;;;;;;;;;;1658152;29;22442;-58
2022/07/27 12:19:59;;;;;;;4.60;2.42;;;;;;;;;;1661380;29;21768;-60
2022/07/27 12:20:51;;;;;;;3.20;2.90;;;;;;;;;;1654881;29;21768;-58
2022/07/27 12:21:52;;;;;;;6.03;2.90;;;;;;;;;;1657120;29;22027;-59
2022/07/27 12:22:46;;;;;;;3.33;2.90;;;;;;;;;;1657830;29;21897;-58
2022/07/27 12:23:49;;;;;;;15.95;3.55;;;;;;;;;;1649605;29;21641;-60
2022/07/27 12:24:43;;;;;;;8.88;3.33;;;;;;;;;;1650395;29;21596;-59
2022/07/27 12:25:36;;;;;;;3.75;3.08;;;;;;;;;;1656000;29;22203;-59
2022/07/27 12:26:28;;;;;;;4.95;2.85;;;;;;;;;;1657574;29;21858;-58
2022/07/27 12:27:21;;;;;;;5.13;2.80;;;;;;;;;;1659903;29;21724;-58
2022/07/27 12:28:16;;;;;;;4.88;3.03;;;;;;;;;;1659182;29;22463;-59
2022/07/27 12:29:11;;;;;;;2.63;2.40;;;;;;;;;;1657426;29;22261;-59
2022/07/27 12:30:09;;;;;;;3.83;2.72;;;;;;;;;;1657995;29;21773;-59
2022/07/27 12:31:03;;;;;;;16.23;3.38;;;;;;;;;;1658662;29;22486;-58
2022/07/27 12:32:02;;;;;;;3.53;2.90;;;;;;;;;;1656837;29;21678;-60
2022/07/27 12:32:55;;;;;;;6.38;3.83;;;;;;;;;;1657159;29;21636;-59
2022/07/27 12:33:46;;;;;;;8.68;2.53;;;;;;;;;;1658591;29;21759;-59
2022/07/27 12:34:38;;;;;;;6.00;2.67;;;;;;;;;;1657512;29;21746;-56
2022/07/27 12:35:35;;;;;;;6.22;2.63;;;;;;;;;;1660938;29;21588;-57
2022/07/27 12:36:29;;;;;;;4.63;2.70;;;;;;;;;;1651433;29;22219;-60
2022/07/27 12:37:21;;;;;;;4.72;2.85;;;;;;;;;;1652543;29;21702;-59
2022/07/27 12:38:15;;;;;;;9.32;2.20;;;;;;;;;;1657264;29;22231;-60
2022/07/27 12:39:06;;;;;;;7.80;2.50;;;;;;;;;;1661768;29;21696;-59
2022/07/27 12:39:59;;;;;;;8.70;2.67;;;;;;;;;;1651218;29;21714;-59
2022/07/27 12:40:54;;;;;;;5.95;3.45;;;;;;;;;;1646618;29;22493;-59
2022/07/27 12:41:46;;;;;;;9.40;3.33;;;;;;;;;;1656356;29;21680;-58
2022/07/27 12:42:39;;;;;;;6.05;3.88;;;;;;;;;;1659679;29;21665;-59
2022/07/27 12:43:32;;;;;;;5.18;4.68;;;;;;;;;;1651002;29;21718;-58
2022/07/27 12:44:31;;;;;;;7.82;4.63;;;;;;;;;;1651918;29;21614;-58
2022/07/27 12:45:29;;;;;;;5.13;4.72;;;;;;;;;;1656263;29;21596;-57
2022/07/27 12:46:21;;;;;;;9.32;5.15;;;;;;;;;;1657840;29;21636;-58
2022/07/27 12:48:27;;;;;;;5.57;4.28;;;;;;;;;;1659997;29;21745;-57
2022/07/27 12:49:23;;;;;;;7.95;4.15;;;;;;;;;;1651383;29;21781;-58
2022/07/27 12:50:19;;;;;;;7.13;4.47;;;;;;;;;;1653567;29;21589;-59
2022/07/27 12:51:12;;;;;;;4.88;4.35;;;;;;;;;;1660601;29;22290;-59
2022/07/27 12:52:08;;;;;;;4.72;4.32;;;;;;;;;;1658030;29;22654;-58
2022/07/27 12:52:59;;;;;;;5.40;4.60;;;;;;;;;;1659440;29;21955;-57
2022/07/27 12:53:52;;;;;;;8.55;4.78;;;;;;;;;;1657857;29;21578;-58
2022/07/27 12:54:43;;;;;;;4.70;4.30;;;;;;;;;;1659286;29;22503;-59
2022/07/27 12:55:36;;;;;;;5.43;4.18;;;;;;;;;;1658398;29;21901;-58
2022/07/27 12:56:28;;;;;;;5.90;4.38;;;;;;;;;;1658878;29;21699;-58
2022/07/27 12:57:20;;;;;;;9.18;4.25;;;;;;;;;;1663412;29;21686;-58
2022/07/27 12:58:13;;;;;;;4.68;3.67;;;;;;;;;;1662590;29;21565;-57
2022/07/27 12:59:05;;;;;;;5.20;4.70;;;;;;;;;;1656750;29;21856;-58
2022/07/27 12:59:57;;;;;;;10.27;4.68;;;;;;;;;;1659495;29;21774;-59
2022/07/27 13:00:49;;;;;;;9.73;4.32;;;;;;;;;;1658924;29;21705;-58
2022/07/27 13:01:41;;;;;;;11.75;4.45;;;;;;;;;;1657934;29;22212;-57
2022/07/27 13:02:34;;;;;;;8.13;4.00;;;;;;;;;;1659037;29;21969;-58
2022/07/27 13:03:26;;;;;;;4.60;4.10;;;;;;;;;;1658186;29;22426;-57
2022/07/27 13:04:18;;;;;;;5.88;4.68;;;;;;;;;;1657701;29;22334;-58
2022/07/27 13:05:13;;;;;;;10.98;4.05;;;;;;;;;;1657404;29;21604;-57
2022/07/27 13:06:05;;;;;;;7.82;4.35;;;;;;;;;;1658239;29;21666;-58
2022/07/27 13:06:59;;;;;;;8.13;3.92;;;;;;;;;;1658621;29;22489;-57
2022/07/27 13:07:52;;;;;;;8.45;3.95;;;;;;;;;;1660379;29;21968;-59
2022/07/27 13:08:43;;;;;;;5.20;3.33;;;;;;;;;;1660806;29;21736;-57
2022/07/27 13:09:37;;;;;;;5.45;3.00;;;;;;;;;;1653585;29;22133;-58